Aeroporto :







RITROVATECI SU...

 
LOGIN :

Iscrizione | Disclaimer

   EN    FR    IT 

 









Sommario :    VFR   VFR Marginale   IFR   IFR Intensivo   IFR Molto Intensivo
Visibilità : 
Base nubi : 
>= 8 km
>= 3000ft
5 / 8 km
1000 / 3000 ft
1500m / 5 km
500 / 1000 ft
800 / 1500m
200 / 500 ft
< 800m
< 200 ft
Simboli :   Temporali  Nebbia  Neve Forte  Precipitazioni Forti  Vento > 20 kt






- Altitudine del aeroporto : 228 ft


KFSO - Franklin County State

ULTIMO METAR :
  • 070815Z AUTO 00000KT 10SM CLR 10/10 A2989 RMK AO2 T01010095

METARs OBSOLETI :
  • 070755Z AUTO 00000KT 10SM CLR 11/10 A2989 RMK AO2 T01060100
  • 070735Z AUTO 00000KT 10SM SCT055 11/11 A2988 RMK AO2 T01140105
  • 070715Z AUTO 01003KT 10SM SCT055 12/11 A2988 RMK AO2 T01180106
  • 070656Z AUTO 02004KT 10SM BKN055 12/11 A2988 RMK AO2 T01200107
  • 070635Z AUTO 01004KT 10SM SCT055 12/11 A2989 RMK AO2 T01200107
  • 070615Z AUTO 36004KT 10SM CLR 12/11 A2988 RMK AO2 T01240106
  • 070555Z AUTO 01005KT 10SM CLR 13/11 A2988 RMK AO2 T01280107 10180 20128
  • 070535Z AUTO 02005KT 10SM CLR 13/11 A2989 RMK AO2 T01310109

TAF N/A
FIR KZBW / America del Nord



MetMap, La meteo Aeronautica in un colpo d'occhio ! - Copyright ORBIFLY Dicembre 2007 - Disclaimer

ORBIFLY MET'MAP TEAM :

Programmazione e sviluppo : Alexandra Zaïnal
Concezione : Baudouin d'Aumeries
Aiuto per la programmazione : Marc-Olivier Méhu
Supporto tecnico e logistico : Manuel Goepfert
Aiuto per la traduzione : Arnaldo La Scala

Contatto : metmap@orbifly.com




FONTI E CREDITI :

   NOAA